Time;durP1;ratioP1;P1;durP2;ratioP2;P2;SDS_P1;SDS_P2;PMS_P1;PMS_P2;Temp;Humidity;BMP_temperature;BMP_pressure;BME280_temperature;BME280_humidity;BME280_pressure;Samples;Min_cycle;Max_cycle;Signal;HPM_P1;HPM_P2
2022/06/06 00:02:01;;;;;;;1.67;1.52;;;;;;;22.50;39.08;99787.00;4349972;32;33263;-85
2022/06/06 00:04:30;;;;;;;2.25;1.73;;;;;;;22.61;38.69;99789.56;4324183;32;34978;-83
2022/06/06 00:06:59;;;;;;;2.42;2.12;;;;;;;22.71;38.63;99798.44;4359477;32;32455;-83
2022/06/06 00:09:27;;;;;;;2.92;1.98;;;;;;;22.48;39.20;99799.75;4352455;32;33037;-83
2022/06/06 00:12:00;;;;;;;2.17;1.80;;;;;;;22.50;39.71;99805.84;4335608;32;33426;-83
2022/06/06 00:14:28;;;;;;;1.80;1.50;;;;;;;22.09;40.55;99802.44;4347043;32;33332;-83
2022/06/06 00:16:56;;;;;;;3.95;1.62;;;;;;;22.24;39.88;99801.03;4348065;32;32255;-86
2022/06/06 00:19:24;;;;;;;3.10;1.70;;;;;;;22.21;40.05;99800.47;4360199;32;33734;-83
2022/06/06 00:21:52;;;;;;;1.87;1.50;;;;;;;22.12;40.00;99801.31;4349589;32;33406;-83
2022/06/06 00:24:21;;;;;;;2.33;2.12;;;;;;;22.16;39.73;99795.50;4355039;32;33161;-84
2022/06/06 00:26:48;;;;;;;2.10;1.90;;;;;;;22.17;39.83;99796.38;4341020;32;33559;-84
2022/06/06 00:29:19;;;;;;;2.55;1.95;;;;;;;21.81;40.60;99792.50;4353424;32;33648;-83
2022/06/06 00:34:51;;;;;;;2.72;1.80;;;;;;;21.95;40.52;99801.00;4354729;32;33645;-83
2022/06/06 00:37:25;;;;;;;3.42;2.00;;;;;;;21.80;40.80;99809.63;4352255;32;32577;-84
2022/06/06 00:39:54;;;;;;;2.22;2.00;;;;;;;21.75;41.14;99817.25;4352682;32;32790;-84
2022/06/06 00:42:26;;;;;;;2.08;1.87;;;;;;;22.30;39.76;99820.28;4354865;32;33910;-84
2022/06/06 00:45:26;;;;;;;1.92;1.73;;;;;;;21.73;41.42;99822.72;4372770;32;33924;-84
2022/06/06 00:48:32;;;;;;;3.40;2.10;;;;;;;21.58;42.22;99838.41;4370991;32;32906;-84
2022/06/06 00:51:06;;;;;;;1.65;1.55;;;;;;;22.31;40.05;99841.66;4374152;32;33584;-84
2022/06/06 00:53:39;;;;;;;2.65;2.15;;;;;;;22.53;39.71;99837.84;4353792;32;33359;-84
2022/06/06 00:56:28;;;;;;;4.72;2.25;;;;;;;22.33;40.39;99841.53;4363152;32;32897;-84
2022/06/06 00:59:03;;;;;;;2.15;1.60;;;;;;;22.04;40.93;99842.34;4368314;32;33776;-84
2022/06/06 01:01:34;;;;;;;2.75;2.15;;;;;;;22.13;40.83;99863.03;4368440;32;34617;-85
2022/06/06 01:04:05;;;;;;;7.68;1.80;;;;;;;22.08;40.50;99870.66;4355601;32;33131;-85
2022/06/06 01:06:35;;;;;;;3.60;2.30;;;;;;;22.13;40.70;99871.13;4369162;32;33101;-85
2022/06/06 01:09:04;;;;;;;3.08;2.28;;;;;;;22.26;40.73;99867.28;4369267;32;32748;-84
2022/06/06 01:11:47;;;;;;;2.15;1.95;;;;;;;22.17;40.80;99875.22;4367775;32;33170;-87
2022/06/06 01:14:18;;;;;;;2.40;1.52;;;;;;;22.36;40.31;99870.84;4367191;32;33701;-86
2022/06/06 01:16:57;;;;;;;2.10;1.90;;;;;;;22.20;40.70;99869.56;4370193;32;32745;-86
2022/06/06 01:19:54;;;;;;;3.95;2.30;;;;;;;22.47;40.19;99870.72;4353864;32;32948;-86
2022/06/06 01:22:48;;;;;;;2.35;2.15;;;;;;;22.24;40.85;99872.81;4361142;32;32515;-87
2022/06/06 01:25:42;;;;;;;3.78;2.50;;;;;;;22.22;40.93;99878.34;4362836;32;34067;-86
2022/06/06 01:28:31;;;;;;;2.37;2.17;;;;;;;22.33;40.80;99884.59;4372132;32;32572;-87
2022/06/06 01:31:05;;;;;;;3.45;2.10;;;;;;;22.05;41.59;99878.97;4359921;32;32655;-84
2022/06/06 01:33:53;;;;;;;2.22;2.03;;;;;;;22.17;41.30;99874.34;4373262;32;33858;-84
2022/06/06 01:36:24;;;;;;;4.68;2.28;;;;;;;22.06;41.81;99878.00;4368159;32;33295;-83
2022/06/06 01:38:52;;;;;;;2.40;2.20;;;;;;;22.14;41.80;99891.63;4365922;32;33763;-84
2022/06/06 01:41:35;;;;;;;1.80;1.70;;;;;;;21.99;42.29;99899.22;4367441;32;33275;-84
2022/06/06 01:44:15;;;;;;;4.25;2.15;;;;;;;21.94;42.61;99900.63;4364869;32;34605;-84
2022/06/06 01:46:43;;;;;;;3.53;2.37;;;;;;;22.10;42.41;99916.22;4365836;32;33117;-84
2022/06/06 01:49:12;;;;;;;4.32;2.70;;;;;;;22.05;43.12;99930.06;4363407;32;33657;-84
2022/06/06 01:51:41;;;;;;;3.22;2.50;;;;;;;21.71;44.78;99941.13;4355952;32;32802;-84
2022/06/06 01:54:09;;;;;;;3.35;2.60;;;;;;;21.59;43.91;99955.63;4367524;32;34117;-85
2022/06/06 01:56:41;;;;;;;2.85;2.55;;;;;;;21.70;44.20;99984.28;4359951;32;33478;-85
2022/06/06 01:59:09;;;;;;;2.30;2.10;;;;;;;21.80;44.39;99997.75;4355685;32;33927;-85
2022/06/06 02:01:37;;;;;;;3.15;2.37;;;;;;;21.85;43.83;100017.03;4373410;32;33436;-85
2022/06/06 02:04:06;;;;;;;2.28;2.05;;;;;;;22.13;43.26;100029.78;4369303;32;33612;-85
2022/06/06 02:06:34;;;;;;;2.00;1.90;;;;;;;22.06;43.19;100033.94;4366663;32;33100;-85
2022/06/06 02:09:01;;;;;;;2.42;2.22;;;;;;;22.34;42.91;100028.84;4361418;32;33652;-85
2022/06/06 02:11:29;;;;;;;2.92;2.45;;;;;;;22.40;42.89;100014.84;4353782;32;31749;-85
2022/06/06 02:13:57;;;;;;;4.10;2.40;;;;;;;22.42;43.54;100010.19;4367559;32;35226;-85
2022/06/06 02:16:25;;;;;;;2.62;2.42;;;;;;;22.46;43.45;100001.72;4374326;32;32989;-85
2022/06/06 02:18:53;;;;;;;3.15;2.80;;;;;;;22.37;44.06;99986.41;4369513;32;32916;-85
2022/06/06 02:21:21;;;;;;;2.85;2.37;;;;;;;22.43;44.20;99987.69;4363025;32;32356;-86
2022/06/06 02:23:48;;;;;;;3.60;2.10;;;;;;;22.30;44.57;99970.94;4374602;32;33603;-86
2022/06/06 02:26:17;;;;;;;2.78;2.08;;;;;;;22.39;44.69;99980.88;4355450;32;33038;-85
2022/06/06 02:28:44;;;;;;;4.12;2.15;;;;;;;22.58;44.35;99971.97;4354568;32;34364;-87
2022/06/06 02:31:12;;;;;;;4.12;2.55;;;;;;;22.49;44.32;99971.81;4367333;32;32510;-87
2022/06/06 02:33:42;;;;;;;2.00;1.83;;;;;;;22.06;45.34;99980.16;4354432;32;34245;-86
2022/06/06 02:36:11;;;;;;;2.28;2.08;;;;;;;22.14;45.71;99987.59;4369203;32;34370;-87
2022/06/06 02:38:39;;;;;;;3.42;2.20;;;;;;;21.81;46.24;99986.03;4361814;32;32233;-86
2022/06/06 02:41:10;;;;;;;2.85;2.25;;;;;;;21.82;46.37;99988.56;4374027;32;33353;-86
2022/06/06 02:43:42;;;;;;;2.30;2.10;;;;;;;22.08;45.98;99988.97;4364798;32;33497;-85
2022/06/06 02:46:13;;;;;;;2.40;2.20;;;;;;;22.04;45.95;99984.00;4364999;32;33918;-85
2022/06/06 02:48:41;;;;;;;2.60;2.37;;;;;;;22.07;46.40;99978.31;4365275;32;33805;-85
2022/06/06 02:51:10;;;;;;;3.95;2.37;;;;;;;22.44;45.39;99978.59;4365251;32;31816;-85
2022/06/06 02:53:38;;;;;;;6.15;2.45;;;;;;;22.47;45.45;99975.66;4365337;32;33797;-85
2022/06/06 02:56:06;;;;;;;5.03;2.53;;;;;;;22.24;45.42;99967.81;4363184;32;34440;-85
2022/06/06 02:58:34;;;;;;;3.20;2.60;;;;;;;21.91;46.97;99965.41;4367802;32;32707;-85
2022/06/06 03:01:08;;;;;;;2.53;2.33;;;;;;;21.47;48.18;99967.47;4359566;32;32562;-85
2022/06/06 03:03:37;;;;;;;4.80;2.53;;;;;;;21.42;47.54;99969.69;4365352;32;32656;-85
2022/06/06 03:06:33;;;;;;;2.65;2.45;;;;;;;21.34;48.43;99985.59;4358955;32;34193;-85
2022/06/06 03:09:24;;;;;;;3.08;2.87;;;;;;;21.43;47.74;99990.19;4368231;32;33936;-85
2022/06/06 03:12:08;;;;;;;4.70;2.58;;;;;;;21.48;48.06;99977.22;4364893;32;34872;-84
2022/06/06 03:15:13;;;;;;;3.70;2.60;;;;;;;21.50;48.28;99972.53;4359354;32;32472;-85
2022/06/06 03:20:47;;;;;;;2.78;2.10;;;;;;;21.59;48.24;99969.06;4353766;32;34745;-85
2022/06/06 03:23:33;;;;;;;2.53;2.33;;;;;;;21.51;48.64;99968.03;4365808;32;34216;-83
2022/06/06 03:26:20;;;;;;;2.12;1.98;;;;;;;21.61;48.76;99964.44;4372107;32;31911;-83
2022/06/06 03:28:52;;;;;;;2.42;2.10;;;;;;;21.65;49.00;99956.94;4367269;32;34627;-83
2022/06/06 03:31:27;;;;;;;4.07;2.50;;;;;;;21.63;49.43;99957.06;4360951;32;32848;-83
2022/06/06 03:33:58;;;;;;;2.25;2.12;;;;;;;21.78;49.23;99944.12;4355683;32;33369;-83
2022/06/06 03:36:54;;;;;;;5.45;2.70;;;;;;;21.76;49.34;99942.56;4353236;32;34262;-83
2022/06/06 03:39:37;;;;;;;3.75;3.03;;;;;;;21.76;49.45;99945.25;4354485;32;34480;-84
2022/06/06 03:42:21;;;;;;;5.03;3.45;;;;;;;21.72;50.59;99934.75;4372360;32;32467;-83
2022/06/06 03:45:06;;;;;;;5.00;2.47;;;;;;;21.65;51.61;99927.41;4351670;32;32595;-84
2022/06/06 03:47:56;;;;;;;3.00;2.80;;;;;;;21.77;51.07;99914.69;4352565;32;32649;-84
2022/06/06 03:50:34;;;;;;;2.92;2.72;;;;;;;21.88;50.63;99912.75;4358903;32;32937;-84
2022/06/06 03:53:20;;;;;;;5.75;2.85;;;;;;;21.81;50.78;99905.38;4357355;32;34008;-85
2022/06/06 03:56:10;;;;;;;2.72;2.47;;;;;;;22.07;49.48;99903.03;4348271;32;33016;-84
2022/06/06 03:58:40;;;;;;;3.25;2.95;;;;;;;21.95;48.67;99895.09;4347705;32;34756;-84
2022/06/06 04:01:12;;;;;;;4.68;3.37;;;;;;;21.72;50.73;99897.13;4354879;32;33387;-84
2022/06/06 04:03:44;;;;;;;4.75;2.58;;;;;;;21.75;51.67;99900.56;4351304;32;33810;-83
2022/06/06 04:06:15;;;;;;;3.17;2.87;;;;;;;21.58;52.42;99899.34;4352046;32;33312;-83
2022/06/06 04:08:44;;;;;;;4.05;2.58;;;;;;;21.59;51.49;99901.87;4360421;32;33966;-84
2022/06/06 04:11:22;;;;;;;6.75;3.10;;;;;;;21.56;50.65;99907.56;4336430;32;32914;-84
2022/06/06 04:14:03;;;;;;;4.80;2.70;;;;;;;21.29;51.02;99926.03;4352622;32;35976;-84
2022/06/06 04:16:43;;;;;;;3.08;2.78;;;;;;;21.50;50.10;99924.19;4346967;32;33328;-84
2022/06/06 04:19:14;;;;;;;2.60;2.40;;;;;;;21.53;51.15;99934.69;4360102;32;34762;-83
2022/06/06 04:22:00;;;;;;;2.50;2.30;;;;;;;21.78;48.33;99928.00;4360701;32;34491;-87
2022/06/06 04:24:50;;;;;;;5.37;2.28;;;;;;;21.70;48.16;99931.38;4351537;32;34348;-87
2022/06/06 04:27:29;;;;;;;3.05;2.83;;;;;;;21.66;48.61;99935.31;4347897;32;33175;-87
2022/06/06 04:30:06;;;;;;;4.37;3.08;;;;;;;21.46;49.80;99939.75;4344636;32;156575;-87
2022/06/06 04:33:00;;;;;;;2.87;2.55;;;;;;;21.51;49.50;99942.03;4359100;32;33912;-87
2022/06/06 04:35:55;;;;;;;9.45;3.33;;;;;;;21.61;48.92;99942.09;4353943;32;33036;-86
2022/06/06 04:38:30;;;;;;;4.82;3.10;;;;;;;21.75;48.84;99940.87;4347605;32;32656;-85
2022/06/06 04:41:15;;;;;;;3.90;3.05;;;;;;;21.54;50.77;99947.13;4359939;32;33819;-84
2022/06/06 04:43:46;;;;;;;2.78;2.58;;;;;;;21.76;50.25;99942.56;4365197;32;34034;-84
2022/06/06 04:46:23;;;;;;;3.20;2.90;;;;;;;21.59;50.53;99954.78;4372795;32;32331;-84
2022/06/06 04:48:52;;;;;;;3.85;3.10;;;;;;;21.52;51.59;99943.72;4361761;32;32348;-85
2022/06/06 04:51:21;;;;;;;2.67;2.47;;;;;;;21.70;50.79;99958.25;4367979;32;33627;-85
2022/06/06 04:53:52;;;;;;;2.83;2.62;;;;;;;21.84;49.75;99945.41;4356804;32;34036;-85
2022/06/06 04:56:21;;;;;;;3.10;2.60;;;;;;;21.79;49.88;99956.59;4366905;32;33368;-85
2022/06/06 04:58:52;;;;;;;4.87;2.78;;;;;;;21.78;49.72;99949.50;4353161;32;32710;-85
2022/06/06 05:01:22;;;;;;;2.87;2.47;;;;;;;21.47;50.49;99964.78;4365777;32;33685;-84
2022/06/06 05:03:50;;;;;;;3.17;2.40;;;;;;;21.59;49.63;99960.16;4367550;32;34006;-84
2022/06/06 05:06:48;;;;;;;3.30;2.75;;;;;;;21.83;48.73;99962.53;4366912;32;32875;-85
2022/06/06 05:09:29;;;;;;;2.90;2.45;;;;;;;21.97;48.84;99960.31;4372584;32;32193;-85
2022/06/06 05:12:04;;;;;;;6.12;2.70;;;;;;;22.33;50.05;99965.28;4374086;32;33585;-85
2022/06/06 05:14:49;;;;;;;3.33;3.03;;;;;;;22.39;48.58;99962.03;4359595;32;35913;-85
2022/06/06 05:17:43;;;;;;;2.85;2.30;;;;;;;22.45;49.21;99966.84;4366778;32;33633;-85
2022/06/06 05:20:27;;;;;;;3.08;2.83;;;;;;;22.65;48.98;99965.91;4348236;32;32026;-85
2022/06/06 05:23:18;;;;;;;4.45;2.78;;;;;;;22.84;50.28;99972.28;4372363;32;33638;-85
2022/06/06 05:26:16;;;;;;;3.60;2.87;;;;;;;23.00;49.97;99973.44;4373264;32;32921;-85
2022/06/06 05:28:57;;;;;;;4.25;3.10;;;;;;;23.31;49.39;99978.69;4366317;32;33581;-85
2022/06/06 05:31:44;;;;;;;8.23;3.47;;;;;;;23.14;50.04;99980.25;4367652;32;33545;-84
2022/06/06 05:34:24;;;;;;;4.53;3.62;;;;;;;23.02;51.03;99977.84;4372314;32;32722;-84
2022/06/06 05:37:31;;;;;;;3.58;3.10;;;;;;;23.06;51.52;99980.09;4374202;32;34848;-85
2022/06/06 05:40:23;;;;;;;3.55;2.95;;;;;;;23.04;52.25;99971.31;4357584;32;32469;-85
2022/06/06 05:43:06;;;;;;;4.00;3.70;;;;;;;23.13;52.22;99973.16;4373319;32;33368;-85
2022/06/06 05:45:52;;;;;;;6.50;3.20;;;;;;;23.26;52.35;99970.16;4351188;32;32866;-85
2022/06/06 05:48:40;;;;;;;;;;;;;;;23.44;52.13;99968.41;4373442;32;34770;-85
2022/06/06 05:51:43;;;;;;;3.72;3.42;;;;;;;23.37;52.40;99972.69;4372996;32;34175;-85
2022/06/06 05:54:26;;;;;;;3.45;3.15;;;;;;;23.66;51.39;99978.03;4369984;32;33394;-85
2022/06/06 05:57:21;;;;;;;6.72;4.43;;;;;;;23.79;51.46;99982.28;4354913;32;32849;-84
2022/06/06 06:00:04;;;;;;;2.97;2.72;;;;;;;23.56;52.52;99984.44;4357885;32;33826;-84
2022/06/06 06:02:44;;;;;;;4.18;3.28;;;;;;;23.73;52.18;99987.22;4375043;32;34419;-84
2022/06/06 06:05:28;;;;;;;3.47;3.17;;;;;;;23.59;52.36;99984.97;4370664;32;33974;-84
2022/06/06 06:08:06;;;;;;;5.22;3.92;;;;;;;23.60;53.11;99983.16;4374150;32;32396;-84
2022/06/06 06:10:42;;;;;;;4.43;4.03;;;;;;;23.98;51.35;99982.19;4375707;32;34079;-85
2022/06/06 06:13:43;;;;;;;3.60;3.30;;;;;;;24.03;51.93;99979.91;4371174;32;34268;-87
2022/06/06 06:16:15;;;;;;;5.10;3.55;;;;;;;23.90;53.19;99984.78;4354448;32;32632;-86
2022/06/06 06:18:48;;;;;;;;;;;;;;;23.98;52.44;99979.50;4367434;32;34248;-85
2022/06/06 06:21:23;;;;;;;5.60;3.53;;;;;;;24.12;51.46;99981.72;4376459;32;35747;-88
2022/06/06 06:23:57;;;;;;;3.12;2.85;;;;;;;24.20;51.41;99981.78;4375102;32;33888;-85
2022/06/06 06:26:32;;;;;;;3.53;3.22;;;;;;;24.03;50.03;99990.69;4365581;32;33407;-85
2022/06/06 06:29:07;;;;;;;2.95;2.75;;;;;;;24.19;50.03;99996.28;4357073;32;34107;-85
2022/06/06 06:31:43;;;;;;;2.58;2.37;;;;;;;24.65;46.90;99989.09;4373162;32;31953;-85
2022/06/06 06:34:44;;;;;;;4.30;2.72;;;;;;;24.72;45.69;99998.25;4369161;32;33851;-85
2022/06/06 06:37:34;;;;;;;2.80;2.60;;;;;;;24.69;45.62;100006.69;4370793;32;33468;-84
2022/06/06 06:40:24;;;;;;;2.35;2.15;;;;;;;24.72;45.92;99997.41;4360713;32;32550;-86
2022/06/06 06:43:12;;;;;;;3.85;3.55;;;;;;;24.59;47.83;99992.38;4355773;32;32809;-85
2022/06/06 06:46:05;;;;;;;3.00;2.70;;;;;;;24.68;46.77;100002.25;4352876;32;33054;-85
2022/06/06 06:48:44;;;;;;;4.12;3.70;;;;;;;24.52;48.89;99996.69;4360785;32;32919;-85
2022/06/06 06:51:20;;;;;;;4.20;3.03;;;;;;;24.71;48.38;99987.63;4346103;32;36868;-86
2022/06/06 06:54:10;;;;;;;3.85;3.37;;;;;;;24.59;48.52;99986.97;4362401;32;33746;-87
2022/06/06 06:56:53;;;;;;;5.60;3.55;;;;;;;24.71;49.17;99980.38;4368665;32;33907;-86
2022/06/06 06:59:47;;;;;;;3.72;3.37;;;;;;;24.74;48.19;99980.06;4350058;32;33455;-87
2022/06/06 07:08:42;;;;;;;2.50;2.30;;;;;;;24.97;47.95;99985.00;4355636;32;33543;-88
2022/06/06 07:11:40;;;;;;;4.75;2.80;;;;;;;25.20;47.15;99986.25;4356454;32;33525;-87
2022/06/06 07:14:24;;;;;;;3.50;3.20;;;;;;;25.40;46.81;99986.03;4367189;32;32813;-87
2022/06/06 07:16:58;;;;;;;5.12;2.97;;;;;;;25.38;46.61;99985.37;4368454;32;33060;-87
2022/06/06 07:19:38;;;;;;;4.60;3.17;;;;;;;25.63;44.86;99984.53;4365117;32;32997;-86
2022/06/06 07:22:07;;;;;;;3.03;2.55;;;;;;;25.77;43.19;99986.66;4354523;32;33113;-87
2022/06/06 07:24:35;;;;;;;4.25;2.78;;;;;;;25.93;42.45;99990.50;4355677;32;32471;-87
2022/06/06 07:27:06;;;;;;;3.45;3.15;;;;;;;26.03;43.12;99989.34;4354512;32;33700;-87
2022/06/06 07:29:41;;;;;;;4.62;3.00;;;;;;;26.36;42.87;99983.22;4357666;32;34664;-87
2022/06/06 07:32:28;;;;;;;3.05;2.72;;;;;;;26.50;41.07;99988.03;4360509;32;33470;-87
2022/06/06 07:35:39;;;;;;;2.28;2.08;;;;;;;26.42;40.26;99996.09;4370096;32;32923;-87
2022/06/06 07:38:16;;;;;;;4.57;2.97;;;;;;;26.38;40.93;99997.44;4315073;33;33979;-87
2022/06/06 07:41:30;;;;;;;2.78;2.58;;;;;;;26.61;38.82;99998.56;4353082;32;33346;-88
2022/06/06 07:44:26;;;;;;;5.18;2.67;;;;;;;26.41;41.13;99991.72;4339803;32;33433;-88
2022/06/06 07:47:18;;;;;;;3.30;2.87;;;;;;;26.37;38.50;99995.75;4342323;32;33608;-87
2022/06/06 07:50:03;;;;;;;2.47;2.28;;;;;;;26.12;39.46;100001.06;4340667;32;34171;-88
2022/06/06 07:52:48;;;;;;;3.10;2.80;;;;;;;26.15;38.16;99998.03;4342590;32;33662;-86
2022/06/06 07:55:24;;;;;;;2.85;2.65;;;;;;;26.24;38.09;99996.19;4350350;32;33410;-88
2022/06/06 07:58:01;;;;;;;3.15;2.12;;;;;;;26.69;38.76;99995.88;4348913;32;34280;-88
2022/06/06 08:00:31;;;;;;;5.68;2.72;;;;;;;26.92;34.14;99990.66;4348124;32;33379;-87
2022/06/06 08:03:23;;;;;;;3.25;2.30;;;;;;;26.41;35.70;100002.53;4356828;32;34111;-87
2022/06/06 08:06:10;;;;;;;2.07;1.97;;;;;;;26.68;35.94;99993.31;4355400;32;32588;-87
2022/06/06 08:08:52;;;;;;;2.33;2.12;;;;;;;26.87;33.61;100005.72;4354196;32;34505;-87
2022/06/06 08:11:43;;;;;;;3.60;2.55;;;;;;;26.56;34.56;100006.34;4357436;32;32567;-89
2022/06/06 08:14:18;;;;;;;4.68;1.85;;;;;;;26.55;35.45;100015.47;4339768;32;33426;-86
2022/06/06 08:17:12;;;;;;;1.95;1.75;;;;;;;26.52;35.97;100004.97;4342090;32;32004;-87
2022/06/06 08:19:54;;;;;;;3.15;2.15;;;;;;;26.52;35.07;100010.37;4324638;32;31454;-87
2022/06/06 08:22:24;;;;;;;2.95;2.65;;;;;;;26.60;36.13;100001.44;4355376;32;32803;-87
2022/06/06 08:24:57;;;;;;;2.60;2.28;;;;;;;26.44;38.39;100005.78;4335723;32;35066;-87
2022/06/06 08:27:35;;;;;;;2.97;2.78;;;;;;;26.83;37.74;100007.94;4351755;32;32755;-87
2022/06/06 08:30:05;;;;;;;6.32;3.37;;;;;;;26.75;38.37;100016.87;4343145;32;32974;-87
2022/06/06 08:32:33;;;;;;;6.60;2.60;;;;;;;26.78;38.54;100011.13;4330533;32;32885;-87
2022/06/06 08:35:02;;;;;;;3.08;2.87;;;;;;;26.25;39.95;100011.41;4347743;32;33900;-87
2022/06/06 08:37:32;;;;;;;4.22;3.00;;;;;;;26.79;38.49;100011.97;4357257;32;33011;-87
2022/06/06 08:40:28;;;;;;;2.70;2.47;;;;;;;27.03;39.43;100013.87;4343229;32;32727;-89
2022/06/06 08:43:01;;;;;;;3.47;3.05;;;;;;;27.39;38.91;100008.12;4350637;32;31997;-88
2022/06/06 08:45:50;;;;;;;5.47;3.00;;;;;;;27.24;39.40;100000.69;4370497;32;33377;-88
2022/06/06 08:48:54;;;;;;;3.85;3.28;;;;;;;27.61;37.95;100007.44;4371691;32;33570;-87
2022/06/06 08:51:42;;;;;;;4.03;3.53;;;;;;;27.33;37.94;100009.66;4345852;32;33065;-87
2022/06/06 08:54:32;;;;;;;3.08;2.78;;;;;;;27.55;36.60;100008.97;4370819;32;33614;-86
2022/06/06 08:57:06;;;;;;;3.33;3.03;;;;;;;27.59;36.83;100008.66;4368392;32;33266;-86
2022/06/06 09:00:13;;;;;;;3.45;3.15;;;;;;;27.54;37.48;100001.03;4355679;32;32060;-86
2022/06/06 09:03:15;;;;;;;4.12;3.83;;;;;;;27.33;37.14;99996.13;4372276;32;34652;-89
2022/06/06 09:06:18;;;;;;;3.92;3.62;;;;;;;26.76;39.67;100002.31;4366922;32;34475;-86
2022/06/06 09:09:12;;;;;;;4.82;3.83;;;;;;;26.55;41.26;100010.06;4367882;32;33405;-86
2022/06/06 09:12:08;;;;;;;4.00;3.70;;;;;;;26.65;42.50;100005.34;4360615;32;33414;-86
2022/06/06 09:15:04;;;;;;;5.30;3.70;;;;;;;26.86;41.03;100004.03;4370952;32;34755;-86
2022/06/06 09:17:46;;;;;;;6.37;4.28;;;;;;;26.63;42.40;100009.22;4358543;32;32036;-86
2022/06/06 09:20:47;;;;;;;4.40;3.45;;;;;;;26.81;41.08;100005.38;4369940;32;33520;-85
2022/06/06 09:23:56;;;;;;;4.45;4.05;;;;;;;26.97;41.39;99998.28;4373713;32;31562;-86
2022/06/06 09:26:38;;;;;;;3.15;2.95;;;;;;;27.10;42.17;99989.69;4352429;32;33262;-86
2022/06/06 09:29:37;;;;;;;3.62;3.42;;;;;;;27.54;39.12;99991.03;4372621;32;33616;-86
2022/06/06 09:32:59;;;;;;;3.08;2.87;;;;;;;27.66;38.99;99983.34;4372879;32;33935;-86
2022/06/06 09:36:10;;;;;;;3.65;3.20;;;;;;;27.84;36.27;99983.19;4349714;32;32343;-86
2022/06/06 09:38:54;;;;;;;3.75;3.00;;;;;;;28.28;35.12;99972.66;4371925;32;33250;-86
2022/06/06 09:41:46;;;;;;;8.52;4.18;;;;;;;27.98;34.15;99966.19;4370514;32;32034;-86
2022/06/06 09:44:17;;;;;;;5.37;3.42;;;;;;;28.14;35.19;99967.97;4354259;32;33394;-86
2022/06/06 09:46:48;;;;;;;3.80;3.45;;;;;;;28.26;36.40;99968.44;4372585;32;31876;-86
2022/06/06 09:49:44;;;;;;;3.72;3.42;;;;;;;28.47;35.24;99967.84;4360642;32;33783;-86
2022/06/06 09:52:39;;;;;;;5.50;3.35;;;;;;;28.41;35.74;99965.84;4364111;32;32865;-86
2022/06/06 09:59:03;;;;;;;4.28;2.55;;;;;;;28.05;35.08;99956.28;4350175;32;33285;-86
2022/06/06 10:02:09;;;;;;;3.40;2.75;;;;;;;28.35;33.27;99951.12;4364730;32;33534;-86
2022/06/06 10:04:58;;;;;;;3.47;2.55;;;;;;;28.52;35.88;99946.41;4360167;32;33738;-86
2022/06/06 10:07:44;;;;;;;5.20;2.67;;;;;;;28.92;31.44;99948.00;4360797;32;32349;-86
2022/06/06 10:10:19;;;;;;;2.83;2.53;;;;;;;28.90;34.71;99939.19;4360792;32;34091;-86
2022/06/06 10:12:59;;;;;;;3.20;2.95;;;;;;;29.12;31.47;99951.09;4369264;32;34295;-86
2022/06/06 10:15:56;;;;;;;4.43;3.30;;;;;;;28.84;31.63;99943.47;4372451;32;32678;-86
2022/06/06 10:18:54;;;;;;;3.00;2.80;;;;;;;29.17;34.08;99940.53;4353165;32;34168;-86
2022/06/06 10:21:51;;;;;;;6.53;2.90;;;;;;;29.69;29.73;99941.56;4370047;32;34765;-86
2022/06/06 10:24:52;;;;;;;2.45;2.25;;;;;;;29.44;30.67;99932.78;4372071;32;33512;-86
2022/06/06 10:27:34;;;;;;;3.53;2.80;;;;;;;30.01;29.86;99937.63;4371983;32;34347;-86
2022/06/06 10:30:27;;;;;;;7.72;4.78;;;;;;;29.99;27.47;99928.78;4373739;32;32041;-86
2022/06/06 10:33:32;;;;;;;5.00;3.37;;;;;;;29.76;27.02;99929.72;4370626;32;33143;-86
2022/06/06 10:36:47;;;;;;;1.98;1.87;;;;;;;29.91;26.94;99931.59;4372454;32;32634;-86
2022/06/06 10:39:38;;;;;;;3.83;2.50;;;;;;;29.92;26.13;99925.97;4351515;32;33680;-86
2022/06/06 10:42:32;;;;;;;2.03;1.87;;;;;;;30.21;27.97;99927.84;4347993;32;33784;-86
2022/06/06 10:45:24;;;;;;;4.50;2.40;;;;;;;30.29;25.33;99925.00;4372556;32;32569;-87
2022/06/06 10:48:27;;;;;;;2.90;2.55;;;;;;;29.94;29.08;99925.78;4372025;32;33346;-87
2022/06/06 10:51:40;;;;;;;3.58;2.47;;;;;;;30.26;25.80;99914.50;4359222;32;33351;-86
2022/06/06 10:54:31;;;;;;;3.60;2.65;;;;;;;29.99;26.51;99913.28;4373409;32;32827;-86
2022/06/06 10:57:16;;;;;;;3.00;2.25;;;;;;;30.10;28.33;99911.97;4371892;32;32475;-86
2022/06/06 11:00:04;;;;;;;3.20;2.90;;;;;;;29.78;27.90;99905.91;4372109;32;33826;-86
2022/06/06 11:02:52;;;;;;;3.33;2.83;;;;;;;29.91;27.53;99905.25;4371810;32;34417;-85
2022/06/06 11:05:44;;;;;;;5.03;2.87;;;;;;;30.46;27.61;99902.97;4371083;32;33570;-85
2022/06/06 11:08:28;;;;;;;3.12;2.83;;;;;;;30.76;27.22;99907.28;4373669;32;32435;-85
2022/06/06 11:11:19;;;;;;;4.60;2.25;;;;;;;30.93;27.06;99898.84;4359719;32;34268;-86
2022/06/06 11:13:49;;;;;;;2.70;2.30;;;;;;;30.79;25.97;99901.44;4357940;32;34198;-86
2022/06/06 11:16:52;;;;;;;4.70;2.55;;;;;;;31.06;27.44;99894.34;4371545;32;33745;-86
2022/06/06 11:19:39;;;;;;;2.62;2.42;;;;;;;31.31;28.26;99897.50;4371108;32;32826;-86
2022/06/06 11:22:36;;;;;;;2.40;2.15;;;;;;;31.00;29.12;99899.72;4372449;32;33697;-86
2022/06/06 11:25:17;;;;;;;2.35;2.15;;;;;;;31.65;25.47;99898.53;4348839;32;33649;-86
2022/06/06 11:28:13;;;;;;;2.53;2.33;;;;;;;31.77;24.16;99887.91;4369792;32;33069;-86
2022/06/06 11:31:02;;;;;;;2.37;2.17;;;;;;;31.49;26.51;99887.97;4345909;32;32245;-86
2022/06/06 11:34:17;;;;;;;3.05;1.90;;;;;;;30.92;25.81;99883.53;4365861;32;32428;-86
2022/06/06 11:37:11;;;;;;;2.17;1.98;;;;;;;31.08;25.92;99884.06;4371553;32;33762;-86
2022/06/06 11:40:00;;;;;;;2.95;2.25;;;;;;;31.56;25.87;99883.38;4359115;32;31432;-86
2022/06/06 11:43:08;;;;;;;3.20;2.65;;;;;;;31.34;25.25;99883.47;4363655;32;33188;-86
2022/06/06 11:46:09;;;;;;;2.78;2.58;;;;;;;31.22;26.54;99879.56;4356101;32;32974;-86
2022/06/06 11:49:31;;;;;;;2.65;2.28;;;;;;;31.90;26.99;99871.59;4369232;32;33274;-86
2022/06/06 11:52:15;;;;;;;2.53;2.33;;;;;;;31.71;25.10;99875.88;4367947;32;33549;-86
2022/06/06 11:55:07;;;;;;;3.22;2.47;;;;;;;31.79;24.87;99875.72;4355650;32;33427;-86
2022/06/06 11:58:07;;;;;;;3.12;2.00;;;;;;;31.61;24.35;99870.81;4367661;32;32843;-86
2022/06/06 12:00:45;;;;;;;2.58;2.28;;;;;;;31.34;24.78;99869.81;4353819;32;33654;-86
2022/06/06 12:03:35;;;;;;;2.87;2.20;;;;;;;31.34;26.31;99864.37;4368234;32;34385;-86
2022/06/06 12:06:31;;;;;;;2.35;2.15;;;;;;;31.48;25.16;99859.00;4357141;32;33761;-86
2022/06/06 12:09:08;;;;;;;3.10;2.15;;;;;;;31.89;24.57;99856.25;4368785;32;34629;-86
2022/06/06 12:12:04;;;;;;;2.70;2.50;;;;;;;31.71;24.95;99858.66;4368210;32;33717;-86
2022/06/06 12:14:59;;;;;;;2.20;1.80;;;;;;;31.79;24.35;99851.16;4351841;32;33044;-86
2022/06/06 12:17:59;;;;;;;2.20;2.05;;;;;;;31.72;25.89;99844.84;4354031;32;32458;-85
2022/06/06 12:20:41;;;;;;;4.45;2.40;;;;;;;31.97;24.07;99834.25;4367979;32;33591;-87
2022/06/06 12:23:28;;;;;;;5.20;2.50;;;;;;;31.73;23.85;99838.31;4368943;32;33204;-86
2022/06/06 12:26:14;;;;;;;2.37;2.17;;;;;;;32.02;23.94;99834.47;4355437;32;33578;-86
2022/06/06 12:29:10;;;;;;;3.00;2.40;;;;;;;32.03;23.86;99836.16;4367117;32;33533;-86
2022/06/06 12:31:51;;;;;;;4.28;2.30;;;;;;;31.71;24.83;99837.66;4367379;32;30810;-86
2022/06/06 12:34:38;;;;;;;2.15;2.03;;;;;;;31.55;24.08;99835.28;4368305;32;33301;-86
2022/06/06 12:37:24;;;;;;;1.80;1.70;;;;;;;30.97;25.16;99832.81;4366857;32;33259;-86
2022/06/06 12:40:00;;;;;;;4.15;2.50;;;;;;;31.28;25.45;99826.94;4367474;32;33944;-86
2022/06/06 12:42:43;;;;;;;3.95;2.58;;;;;;;31.24;27.22;99828.38;4368879;32;35400;-85
2022/06/06 12:45:38;;;;;;;2.60;2.40;;;;;;;31.27;25.73;99830.72;4360933;32;31992;-86
2022/06/06 12:48:13;;;;;;;3.65;2.28;;;;;;;31.71;25.33;99831.38;4347658;32;33199;-86
2022/06/06 12:51:00;;;;;;;3.12;2.50;;;;;;;31.97;25.89;99819.75;4356615;32;33071;-86
2022/06/06 12:53:49;;;;;;;3.05;2.85;;;;;;;31.69;26.00;99822.56;4367698;32;33703;-86
2022/06/06 12:56:36;;;;;;;3.37;2.53;;;;;;;31.85;26.42;99822.22;4368652;32;34563;-86
2022/06/06 12:59:25;;;;;;;2.12;2.03;;;;;;;31.96;25.70;99818.06;4344824;32;33100;-86
2022/06/06 13:02:03;;;;;;;3.62;2.22;;;;;;;31.97;24.55;99819.75;4367581;32;33802;-86